Lexington Weather

Lexington, Massachusetts, USA

69°F
7/7/2022 9:08am 
  • Lexington Conditions: Overcast
  • Temperature: 69.4°F / 20.8°CWarmer 3.2°F than last hour.
  • Dew Point: 59.2°FDecreased 1.6°Fsince last hour.
  • Relative Humidity: 70%Decreased 13.0% since last hour.
  • Wind: Calm, 10-min avg: Calm, gust: None
  • Barometer: 30.01 in Steady
  • Visibility: 10 miles
  • Rain Today: 0.00 in
  •   

Nearby Reports - Official Weather Stations - Current Conditions

Data from the National Weather Service

KBED - Bedford, MA


Distance from station: WNW 4mi, 6km

Updated Thu Jul 7, 2022 7:51am EDT (NOT Current)

Overcast

Overcast

Wind from calm

Wind:

Calm

Temperature: 64°F (18°C)

Dew Point: 59°F (15°C)

Humidity: 83%

Barometer: 30.04 in (1017.3 hPa)

Clouds: Overcast

Visibility: 10 miles (16 km)

Cloud details: Overcast 8500 ft


2022/07/07 11:51 KBED 071151Z 00000KT 10SM OVC085 18/15 A3004 RMK AO2 SLP185 T01830150 10183 20139 51012

KBOS - Boston, MA


Distance from station: ESE 12mi, 20km

Updated Thu Jul 7, 2022 7:54am EDT

Mostly cloudy

Mostly cloudy

Wind from E

Wind:

E 5 mph, 7 km/h

Temperature: 72°F (22°C)

Dew Point: 55°F (13°C)

Humidity: 57%

Barometer: 30.05 in (1017.6 hPa)

Clouds: Mostly cloudy

Visibility: 10 miles (16 km)

Cloud details: Few Clouds 7500 ft
Mostly cloudy 8500 ft


2022/07/07 11:54 KBOS 071154Z 08004KT 10SM FEW075 BKN085 22/13 A3005 RMK AO2 SLP175 T02170128 10217 20189 51013

KOWD - Norwood, MA


Distance from station: SSE 18mi, 29km

Updated Thu Jul 7, 2022 7:53am EDT (NOT Current)

Mostly cloudy

Mostly cloudy

Wind from calm

Wind:

Calm

Temperature: 68°F (20°C)

Dew Point: 61°F (16°C)

Humidity: 78%

Barometer: 30.05 in (1017.6 hPa)

Clouds: Mostly cloudy

Visibility: 10 miles (16 km)

Cloud details: Mostly cloudy 8500 ft


2022/07/07 11:53 KOWD 071153Z 00000KT 10SM BKN085 20/16 A3005 RMK AO2 SLP174 T02000156 10200 20128 51013

KBVY - Beverly, MA


Distance from station: ENE 19mi, 31km

Updated Thu Jul 7, 2022 7:53am EDT (NOT Current)

Overcast

Overcast

Wind from NNE

Wind:

NNE 5 mph, 7 km/h

Temperature: 68°F (20°C)

Dew Point: 57°F (14°C)

Humidity: 69%

Barometer: 30.04 in (1017.3 hPa)

Clouds: Overcast

Visibility: 10 miles (16 km)

Cloud details: Overcast 8000 ft


2022/07/07 11:53 KBVY 071153Z 02004KT 10SM OVC080 20/14 A3004 RMK AO2 SLP167 T02000144 10200 20144 50011

KLWM - Lawrence, MA


Distance from station: NNE 20mi, 32km

Updated Thu Jul 7, 2022 7:54am EDT

Few Clouds

Few Clouds

Wind from NNW

Wind:

NNW 3 mph, 6 km/h

Temperature: 68°F (20°C)

Dew Point: 57°F (14°C)

Humidity: 69%

Barometer: 30.07 in (1018.3 hPa)

Clouds: Few Clouds

Visibility: 10 miles (16 km)

Cloud details: Few Clouds 8500 ft


2022/07/07 11:54 KLWM 071154Z 34003KT 10SM FEW085 20/14 A3007 RMK AO2 RAE1056 SLP181 P0000 60000 T02000144 10200 20144 51012

KFIT - Fitchburg, MA


Distance from station: WNW 27mi, 44km

Updated Thu Jul 7, 2022 7:52am EDT (NOT Current)

Overcast

Overcast

Wind from calm

Wind:

Calm

Temperature: 64°F (18°C)

Dew Point: 55°F (13°C)

Humidity: 73%

Barometer: 30.07 in (1018.3 hPa)

Clouds: Overcast

Visibility: 10 miles (16 km)

Cloud details: Overcast 8500 ft


2022/07/07 11:52 KFIT 071152Z AUTO 00000KT 10SM OVC085 18/13 A3007 RMK AO2 SLP181 T01780128 10178 20128 51012

KASH - Nashua/Boire Fld, NH


Distance from station: NNW 28mi, 44km

Updated Thu Jul 7, 2022 7:56am EDT

Overcast

Overcast

Wind from NW

Wind:

NW 3 mph, 6 km/h

Temperature: 66°F (19°C)

Dew Point: 61°F (16°C)

Humidity: 83%

Barometer: 30.06 in (1017.9 hPa)

Clouds: Overcast

Visibility: 10 miles (16 km)

Cloud details: Overcast 8500 ft


2022/07/07 11:56 KASH 071156Z 32003KT 10SM OVC085 19/16 A3006 RMK AO2 SLP184 T01940156 10200 20133 50011 $

KORH - Worcester, MA


Distance from station: WSW 34mi, 55km

Updated Thu Jul 7, 2022 7:54am EDT

Clear

Clear

Wind from NE

Wind:

NE 3 mph, 6 km/h

Temperature: 66°F (19°C)

Dew Point: 55°F (13°C)

Humidity: 68%

Barometer: 30.07 in (1018.3 hPa)

Clouds: Clear

Visibility: 10 miles (16 km)


2022/07/07 11:54 KORH 071154Z 05003KT 10SM CLR 19/13 A3007 RMK AO2 SLP180 T01940128 10194 20172 51013

KMHT - Manchester, NH


Distance from station: NNW 35mi, 57km

Updated Thu Jul 7, 2022 7:53am EDT (NOT Current)

Partly cloudy

Partly cloudy

Wind from varies

Wind:

varies 3 mph, 6 km/h

Temperature: 66°F (19°C)

Dew Point: 55°F (13°C)

Humidity: 68%

Barometer: 30.05 in (1017.6 hPa)

Clouds: Partly cloudy

Visibility: 10 miles (16 km)

Cloud details: Partly cloudy 8500 ft


2022/07/07 11:53 KMHT 071153Z VRB03KT 10SM SCT085 19/13 A3005 RMK AO2 SLP185 T01940133 10194 20167 51012

KGHG - Marshfield, MA


Distance from station: SE 38mi, 60km

Updated Thu Jul 7, 2022 8:15am EDT

Clear

Clear

Wind from varies

Wind:

varies 5 mph, 7 km/h

Temperature: 70°F (21°C)

Dew Point: 57°F (14°C)

Humidity: 64%

Barometer: 30.06 in (1017.9 hPa)

Clouds: Clear

Visibility: 10 miles (16 km)


2022/07/07 12:15 KGHG 071215Z AUTO VRB04KT 10SM CLR 21/14 A3006 RMK AO2

KSFZ - Pawtucket, RI


Distance from station: SSW 39mi, 62km

Updated Thu Jul 7, 2022 7:56am EDT

Clear

Clear

Wind from calm

Wind:

Calm

Temperature: 70°F (21°C)

Dew Point: 59°F (15°C)

Humidity: 69%

Barometer: 30.06 in (1017.9 hPa)

Clouds: Clear

Visibility: 10 miles (16 km)


2022/07/07 11:56 KSFZ 071156Z AUTO 00000KT 10SM CLR 21/15 A3006 RMK AO2 SLP178 T02060150 10206 20128 51014 $

KTAN - Taunton, MA


Distance from station: SSE 40mi, 65km

Updated Thu Jul 7, 2022 7:52am EDT (NOT Current)

Clear

Clear

Wind from calm

Wind:

Calm

Temperature: 70°F (21°C)

Dew Point: 61°F (16°C)

Humidity: 73%

Barometer: 30.05 in (1017.6 hPa)

Clouds: Clear

Visibility: 10 miles (16 km)


2022/07/07 11:52 KTAN 071152Z AUTO 00000KT 10SM CLR 21/16 A3005 RMK AO2 SLP173 T02060156 10206 20122 51014

KPYM - Plymouth, MA


Distance from station: SE 44mi, 72km

Updated Thu Jul 7, 2022 7:52am EDT (NOT Current)

Clear

Clear

Wind from varies

Wind:

varies 3 mph, 6 km/h

Temperature: 72°F (22°C)

Dew Point: 61°F (16°C)

Humidity: 69%

Barometer: 30.05 in (1017.6 hPa)

Clouds: Clear

Visibility: 10 miles (16 km)


2022/07/07 11:52 KPYM 071152Z AUTO VRB03KT 10SM CLR 22/16 A3005 RMK AO2 SLP176 T02170161 10217 20144 51016

KAFN - Jaffrey, NH


Distance from station: WNW 46mi, 74km

Updated Thu Jul 7, 2022 7:52am EDT (NOT Current)

Overcast

Overcast

Wind from calm

Wind:

Calm

Temperature: 61°F (16°C)

Dew Point: 57°F (14°C)

Humidity: 88%

Barometer: 30.08 in (1018.6 hPa)

Clouds: Overcast

Visibility: 10 miles (16 km)

Cloud details: Overcast 7500 ft


2022/07/07 11:52 KAFN 071152Z AUTO 00000KT 10SM OVC075 16/14 A3008 RMK AO2 SLP187 T01610139 10161 20117 51012

KPSM - Portsmouth/Pease, NH


Distance from station: NNE 48mi, 78km

Updated Thu Jul 7, 2022 7:56am EDT

Few Clouds

Few Clouds

Wind from calm

Wind:

Calm

Temperature: 68°F (20°C)

Dew Point: 54°F (12°C)

Humidity: 60%

Barometer: 30.04 in (1017.3 hPa)

Clouds: Few Clouds

Visibility: 10 miles (16 km)

Cloud details: Few Clouds 8500 ft


2022/07/07 11:56 KPSM 071156Z 00000KT 10SM FEW085 20/12 A3004 RMK AO2A SLP175 T02000122 10200 20156 50011

KPVD - Providence/Green, RI


Distance from station: S 51mi, 82km

Updated Thu Jul 7, 2022 7:51am EDT (NOT Current)

Few Clouds

Few Clouds

Wind from calm

Wind:

Calm

Temperature: 72°F (22°C)

Dew Point: 59°F (15°C)

Humidity: 65%

Barometer: 30.05 in (1017.6 hPa)

Clouds: Few Clouds

Visibility: 10 miles (16 km)

Cloud details: Few Clouds 2500 ft
Few Clouds 8500 ft
Few Clouds 30000 ft


2022/07/07 11:51 KPVD 071151Z 00000KT 10SM FEW025 FEW085 FEW300 22/15 A3005 RMK AO2 SLP176 T02170150 10217 20161 51012

KCON - Concord, NH


Distance from station: NNW 54mi, 87km

Updated Thu Jul 7, 2022 7:51am EDT (NOT Current)

Clear

Clear

Wind from NW

Wind:

NW 3 mph, 6 km/h

Temperature: 63°F (17°C)

Dew Point: 55°F (13°C)

Humidity: 77%

Barometer: 30.07 in (1018.3 hPa)

Clouds: Clear

Visibility: 10 miles (16 km)


2022/07/07 11:51 KCON 071151Z AUTO 31003KT 10SM CLR 17/13 A3007 RMK AO2 SLP181 T01670128 10167 20106 51013

KEWB - New Bedford, MA


Distance from station: SSE 54mi, 87km

Updated Thu Jul 7, 2022 7:53am EDT (NOT Current)

Clear

Clear

Wind from calm

Wind:

Calm

Temperature: 73°F (23°C)

Dew Point: 57°F (14°C)

Humidity: 57%

Barometer: 30.04 in (1017.3 hPa)

Clouds: Clear

Visibility: 10 miles (16 km)


2022/07/07 11:53 KEWB 071153Z 00000KT 10SM CLR 23/14 A3004 RMK AO2 SLP173 T02280144 10228 20133 53007

KORE - Orange, Massachusetts, USA


Distance from station: W 54mi, 87km

Updated Thu Jul 7, 2022 7:52am EDT (NOT Current)

Few Clouds

Few Clouds

Wind from calm

Wind:

Calm

Temperature: 61°F (16°C)

Dew Point: 55°F (13°C)

Humidity: 83%

Barometer: 30.08 in (1018.6 hPa)

Clouds: Few Clouds

Visibility: 10 miles (16 km)

Cloud details: Few Clouds 8000 ft


2022/07/07 11:52 KORE 071152Z AUTO 00000KT 10SM FEW080 16/13 A3008 RMK AO2 SLP184 70002 T01610133 10161 20117 51011

KPVC - Provincetown, Massachusetts, USA


Distance from station: ESE 58mi, 94km

Updated Thu Jul 7, 2022 7:56am EDT

Partly cloudy

Partly cloudy

Wind from S

Wind:

S 6 mph, 9 km/h

Temperature: 70°F (21°C)

Dew Point: 64°F (18°C)

Humidity: 83%

Barometer: 30.06 in (1017.9 hPa)

Clouds: Partly cloudy

Visibility: 10 miles (16 km)

Cloud details: Few Clouds 6500 ft
Partly cloudy 8000 ft


2022/07/07 11:56 KPVC 071156Z AUTO 19005KT 10SM FEW065 SCT080 21/18 A3006 RMK AO2 SLP179 T02110178 10211 20133 51017

KCEF - Chicopee/Westover, Massachusetts, USA


Distance from station: WSW 67mi, 108km

Updated Thu Jul 7, 2022 7:56am EDT

Few Clouds

Few Clouds

Wind from ENE

Wind:

ENE 3 mph, 6 km/h

Temperature: 64°F (18°C)

Dew Point: 59°F (15°C)

Humidity: 83%

Barometer: 30.05 in (1017.6 hPa)

Clouds: Few Clouds

Visibility: 10 miles (16 km)

Cloud details: Few Clouds 8000 ft


2022/07/07 11:56 KCEF 071156Z 06003KT 10SM FEW080 18/15 A3005 RMK AO2A SLP181 T01800145 10180 20121 51014

KMWN - Mount Washington, NH


Distance from station: N 126mi, 203km

Updated Thu Jul 7, 2022 7:59am EDT

Few Clouds

Few Clouds

Wind from N

Wind:

N 16 mph, 26 km/h,
Gust: 30 mph, 48 km/h

Temperature: 43°F (6°C)

Wind Chill: 35°F (2°C)

Dew Point: 34°F (1°C)

Humidity: 71%

Clouds: Few Clouds

Visibility: 100 miles (160 km)

Cloud details: Few Clouds 2000 ft
Few Clouds 20000 ft


2022/07/07 11:59 KMWN 071159Z COR 36014G26KT 100SM FEW020 FEW200 06/01 RMK PTCHY VLY FG W-NE 70012 10064 20031

KFUL - Fullerton, California, USA


Distance from station: W 2235mi, 4139km

Updated Thu Jul 7, 2022 4:53am PDT (NOT Current)

Clear

Clear

Wind from calm

Wind:

Calm

Temperature: 63°F (17°C)

Dew Point: 57°F (14°C)

Humidity: 83%

Barometer: 29.93 in (1013.5 hPa)

Clouds: Clear

Visibility: 10 miles (16 km)


2022/07/07 11:53 KFUL 071153Z AUTO 00000KT 10SM CLR 17/14 A2993 RMK AO2 SLP133 T01720144 10194 20172 53002